Time;durP1;ratioP1;P1;durP2;ratioP2;P2;SDS_P1;SDS_P2;PMS_P1;PMS_P2;Temp;Humidity;BMP_temperature;BMP_pressure;BME280_temperature;BME280_humidity;BME280_pressure;Samples;Min_cycle;Max_cycle;Signal;HPM_P1;HPM_P2
2024/02/15 00:01:56;;;;;;;4.70;2.83;;;21.10;55.40;;;;;;5059237;28;20195;-71
2024/02/15 00:04:21;;;;;;;4.37;2.00;;;21.10;55.40;;;;;;5060121;28;20199;-69
2024/02/15 00:06:47;;;;;;;4.80;3.17;;;21.10;55.40;;;;;;5059502;28;20533;-71
2024/02/15 00:09:12;;;;;;;4.60;2.80;;;21.10;55.90;;;;;;5058296;28;20236;-71
2024/02/15 00:11:39;;;;;;;3.13;2.20;;;21.00;55.30;;;;;;5059549;28;20657;-71
2024/02/15 00:14:05;;;;;;;4.43;2.00;;;21.00;55.30;;;;;;5059252;28;20174;-72
2024/02/15 00:16:30;;;;;;;3.40;2.20;;;21.00;55.30;;;;;;5059697;28;21010;-71
2024/02/15 00:18:56;;;;;;;3.57;2.20;;;21.00;55.30;;;;;;5059298;28;20233;-71
2024/02/15 00:21:22;;;;;;;3.97;2.10;;;21.00;55.30;;;;;;5059605;28;20202;-70
2024/02/15 00:23:48;;;;;;;3.03;2.40;;;21.00;55.30;;;;;;5059515;28;20416;-71
2024/02/15 00:26:15;;;;;;;2.37;1.73;;;21.00;55.30;;;;;;5059240;28;20483;-71
2024/02/15 00:28:44;;;;;;;2.73;2.00;;;21.00;55.30;;;;;;5059405;28;20417;-70
2024/02/15 00:31:09;;;;;;;2.73;1.90;;;21.00;55.30;;;;;;5059402;28;20765;-71
2024/02/15 00:33:37;;;;;;;3.50;2.77;;;21.00;55.30;;;;;;5059022;28;20471;-71
2024/02/15 00:36:04;;;;;;;3.00;2.20;;;21.00;55.30;;;;;;5059228;28;20198;-70
2024/02/15 00:38:32;;;;;;;3.97;2.60;;;21.00;55.40;;;;;;5057183;28;20976;-70
2024/02/15 00:40:58;;;;;;;3.83;2.20;;;21.00;55.30;;;;;;5055346;28;20421;-70
2024/02/15 00:43:26;;;;;;;4.93;2.10;;;21.00;55.40;;;;;;5055825;28;20467;-69
2024/02/15 00:45:51;;;;;;;3.83;2.37;;;21.00;55.40;;;;;;5056022;28;20471;-70
2024/02/15 00:48:17;;;;;;;2.97;2.00;;;21.00;55.40;;;;;;5055764;28;20918;-70
2024/02/15 00:50:42;;;;;;;5.30;2.13;;;21.00;55.40;;;;;;5055911;28;20254;-70
2024/02/15 00:53:08;;;;;;;2.33;1.80;;;21.00;55.40;;;;;;5055672;28;20198;-70
2024/02/15 00:55:34;;;;;;;3.17;1.77;;;21.00;55.40;;;;;;5055889;28;20207;-71
2024/02/15 00:57:59;;;;;;;2.27;1.93;;;21.00;55.40;;;;;;5055665;28;20210;-71
2024/02/15 01:00:26;;;;;;;2.80;1.77;;;21.00;55.40;;;;;;5055456;28;20186;-70
2024/02/15 01:02:52;;;;;;;2.80;1.77;;;21.00;56.00;;;;;;5055732;28;20198;-70
2024/02/15 01:05:18;;;;;;;3.60;2.10;;;21.00;55.40;;;;;;5055185;28;20830;-70
2024/02/15 01:07:44;;;;;;;3.20;2.13;;;21.00;55.40;;;;;;5055159;28;20398;-71
2024/02/15 01:10:10;;;;;;;2.60;1.60;;;21.00;55.40;;;;;;5055196;28;20421;-71
2024/02/15 01:12:35;;;;;;;2.10;1.90;;;21.00;55.40;;;;;;5055217;28;20253;-71
2024/02/15 01:15:02;;;;;;;3.30;2.27;;;20.90;55.30;;;;;;5055355;28;20171;-71
2024/02/15 01:17:28;;;;;;;3.93;2.00;;;21.00;55.40;;;;;;5055552;28;20649;-71
2024/02/15 01:19:54;;;;;;;4.93;2.40;;;21.00;55.40;;;;;;5055211;28;20885;-71
2024/02/15 01:22:26;;;;;;;3.37;2.47;;;21.00;55.40;;;;;;5055475;28;20520;-69
2024/02/15 01:24:52;;;;;;;2.60;1.50;;;20.90;55.30;;;;;;5055113;28;20445;-71
2024/02/15 01:27:18;;;;;;;5.17;1.97;;;21.00;55.40;;;;;;5055172;28;20897;-71
2024/02/15 01:29:44;;;;;;;2.70;1.97;;;20.90;55.30;;;;;;5055039;28;20413;-71
2024/02/15 01:32:09;;;;;;;2.90;1.87;;;20.90;55.30;;;;;;5054945;28;20614;-68
2024/02/15 01:34:35;;;;;;;3.20;1.80;;;20.90;55.30;;;;;;5053475;28;20205;-70
2024/02/15 01:37:00;;;;;;;2.70;1.87;;;21.00;55.40;;;;;;5054941;28;20256;-71
2024/02/15 01:39:26;;;;;;;2.23;1.60;;;20.90;55.30;;;;;;5055008;28;20175;-71
2024/02/15 01:41:55;;;;;;;2.40;1.80;;;20.90;55.30;;;;;;5054761;28;20195;-71
2024/02/15 01:44:21;;;;;;;3.27;1.80;;;20.90;55.30;;;;;;5053154;28;20218;-71
2024/02/15 01:46:48;;;;;;;3.43;2.13;;;20.90;55.30;;;;;;5054841;28;20429;-70
2024/02/15 01:49:15;;;;;;;3.10;1.80;;;20.90;55.30;;;;;;5054770;28;20174;-70
2024/02/15 01:51:43;;;;;;;2.60;1.80;;;20.90;55.30;;;;;;5053439;28;20479;-70
2024/02/15 01:54:10;;;;;;;2.80;1.97;;;21.00;55.40;;;;;;5054996;28;20416;-71
2024/02/15 01:56:36;;;;;;;2.03;1.53;;;20.90;55.30;;;;;;5054651;28;20924;-72
2024/02/15 01:59:04;;;;;;;3.33;2.03;;;20.90;55.30;;;;;;5053968;28;20496;-71
2024/02/15 02:01:32;;;;;;;2.60;1.90;;;20.90;55.40;;;;;;5052735;28;20542;-71
2024/02/15 02:03:58;;;;;;;2.73;1.70;;;20.90;55.40;;;;;;5054387;28;20418;-69
2024/02/15 02:06:24;;;;;;;4.20;1.80;;;20.90;55.30;;;;;;5053729;28;20548;-70
2024/02/15 02:08:50;;;;;;;2.90;1.90;;;20.90;55.30;;;;;;5054332;28;20496;-71
2024/02/15 02:11:16;;;;;;;1.90;1.53;;;20.90;55.30;;;;;;5053965;28;20721;-69
2024/02/15 02:13:41;;;;;;;2.50;1.90;;;20.90;55.30;;;;;;5053394;28;20171;-70
2024/02/15 02:16:26;;;;;;;3.23;2.17;;;20.90;55.40;;;;;;5053155;28;20183;-70
2024/02/15 02:18:51;;;;;;;1.97;1.50;;;20.90;55.40;;;;;;5053099;28;20191;-70
2024/02/15 02:21:17;;;;;;;2.77;1.80;;;20.90;55.30;;;;;;5053356;28;20455;-69
2024/02/15 02:23:46;;;;;;;2.53;1.80;;;20.90;55.40;;;;;;5053242;28;20193;-69
2024/02/15 02:26:12;;;;;;;1.97;1.67;;;20.90;55.40;;;;;;5053306;28;20348;-71
2024/02/15 02:28:38;;;;;;;3.80;2.27;;;20.90;55.40;;;;;;5053504;28;20469;-70
2024/02/15 02:31:03;;;;;;;2.50;1.63;;;20.90;55.40;;;;;;5053271;28;20256;-69
2024/02/15 02:33:29;;;;;;;2.30;1.70;;;20.90;55.40;;;;;;5053794;28;20175;-71
2024/02/15 02:35:57;;;;;;;3.00;1.80;;;20.90;55.40;;;;;;5052831;28;20183;-72
2024/02/15 02:38:26;;;;;;;2.53;1.60;;;20.90;55.40;;;;;;5053261;28;20170;-71
2024/02/15 02:40:52;;;;;;;2.27;1.90;;;20.90;55.40;;;;;;5052712;28;20417;-70
2024/02/15 02:43:18;;;;;;;3.30;2.50;;;20.90;55.40;;;;;;5051124;28;20421;-70
2024/02/15 02:45:45;;;;;;;2.47;1.50;;;20.90;55.40;;;;;;5052757;28;20975;-71
2024/02/15 02:48:11;;;;;;;2.23;1.73;;;20.90;55.40;;;;;;5052683;28;20174;-71
2024/02/15 02:50:37;;;;;;;2.47;2.27;;;20.90;55.40;;;;;;5053277;28;20512;-70
2024/02/15 02:53:03;;;;;;;2.90;2.00;;;20.90;55.40;;;;;;5052764;28;20429;-69
2024/02/15 02:55:29;;;;;;;2.20;1.50;;;20.90;55.40;;;;;;5053340;28;20420;-68
2024/02/15 02:57:55;;;;;;;2.83;1.60;;;20.90;55.40;;;;;;5053169;28;20435;-72
2024/02/15 03:00:21;;;;;;;2.53;1.67;;;20.90;55.40;;;;;;5052721;28;20175;-70
2024/02/15 03:02:47;;;;;;;2.17;1.83;;;20.90;55.40;;;;;;5052111;28;20202;-70
2024/02/15 03:05:13;;;;;;;2.73;1.67;;;20.90;55.40;;;;;;5052999;28;21295;-70
2024/02/15 03:07:42;;;;;;;3.23;2.00;;;20.90;55.40;;;;;;5052749;28;20481;-71
2024/02/15 03:10:09;;;;;;;2.93;2.00;;;20.80;55.30;;;;;;5052955;28;20528;-71
2024/02/15 03:12:36;;;;;;;2.60;1.67;;;20.80;55.30;;;;;;5052971;28;20874;-70
2024/02/15 03:15:11;;;;;;;2.40;1.80;;;20.90;55.40;;;;;;5052894;28;20417;-70
2024/02/15 03:17:40;;;;;;;2.03;1.60;;;20.80;55.30;;;;;;5052663;28;20404;-69
2024/02/15 03:20:40;;;;;;;2.30;1.50;;;20.80;55.30;;;;;;5053240;28;20449;-70
2024/02/15 03:23:00;;;;;;;2.83;1.90;;;20.80;55.30;;;;;;5052876;28;20446;-70
2024/02/15 03:25:28;;;;;;;2.40;1.50;;;20.80;55.30;;;;;;5052973;28;20872;-71
2024/02/15 03:27:55;;;;;;;2.20;1.50;;;20.80;55.30;;;;;;5052813;28;20452;-70
2024/02/15 03:30:26;;;;;;;1.67;1.30;;;20.80;55.30;;;;;;5052826;28;20409;-69
2024/02/15 03:32:52;;;;;;;2.23;1.47;;;20.80;55.30;;;;;;5052657;28;20448;-70
2024/02/15 03:35:20;;;;;;;1.90;1.40;;;20.80;55.30;;;;;;5052907;28;20893;-70
2024/02/15 03:37:45;;;;;;;2.07;1.60;;;20.80;55.30;;;;;;5052879;28;20462;-71
2024/02/15 03:40:12;;;;;;;1.83;1.40;;;20.80;55.30;;;;;;5052883;28;20500;-70
2024/02/15 03:42:38;;;;;;;2.70;2.03;;;20.80;55.30;;;;;;5052690;28;20201;-71
2024/02/15 03:45:06;;;;;;;3.33;1.70;;;20.80;55.30;;;;;;5053112;28;20453;-70
2024/02/15 03:47:33;;;;;;;1.90;1.47;;;20.80;55.30;;;;;;5052797;28;20662;-70
2024/02/15 03:49:59;;;;;;;2.70;1.90;;;20.80;55.30;;;;;;5052947;28;20425;-71
2024/02/15 03:52:24;;;;;;;2.80;1.77;;;20.80;55.30;;;;;;5052494;28;20940;-71
2024/02/15 03:54:50;;;;;;;2.70;1.60;;;20.80;55.30;;;;;;5052296;28;20409;-70
2024/02/15 03:57:17;;;;;;;2.17;1.60;;;20.80;55.30;;;;;;5053101;28;20190;-71
2024/02/15 03:59:42;;;;;;;3.83;1.70;;;20.80;55.30;;;;;;5052489;28;20179;-70
2024/02/15 04:02:14;;;;;;;2.27;1.33;;;20.80;55.30;;;;;;5052456;28;20427;-71
2024/02/15 04:04:42;;;;;;;2.40;1.57;;;20.80;55.30;;;;;;5052614;28;20264;-71
2024/02/15 04:07:08;;;;;;;2.70;1.80;;;20.80;55.30;;;;;;5052752;28;20416;-70
2024/02/15 04:09:35;;;;;;;3.10;1.50;;;20.80;55.30;;;;;;5052789;28;20437;-71
2024/02/15 04:12:01;;;;;;;2.37;1.50;;;20.80;55.30;;;;;;5052543;28;20472;-71
2024/02/15 04:14:27;;;;;;;2.00;1.30;;;20.80;55.30;;;;;;5054623;28;20435;-70
2024/02/15 04:16:53;;;;;;;1.97;1.50;;;20.80;55.30;;;;;;5056799;28;20406;-70
2024/02/15 04:19:19;;;;;;;2.60;1.57;;;20.80;55.30;;;;;;5056037;28;20536;-70
2024/02/15 04:21:47;;;;;;;3.03;2.20;;;20.80;55.30;;;;;;5055945;28;20191;-70
2024/02/15 04:24:12;;;;;;;2.27;1.57;;;20.80;55.30;;;;;;5054349;28;20417;-71
2024/02/15 04:26:38;;;;;;;3.53;2.03;;;20.80;55.30;;;;;;5056193;28;20413;-70
2024/02/15 04:29:04;;;;;;;2.13;1.60;;;20.80;55.30;;;;;;5056385;28;20182;-70
2024/02/15 04:31:31;;;;;;;3.60;1.20;;;20.80;55.30;;;;;;5055984;28;20237;-70
2024/02/15 04:33:57;;;;;;;1.87;1.50;;;20.80;55.30;;;;;;5055755;28;20412;-70
2024/02/15 04:36:26;;;;;;;1.90;1.43;;;20.80;55.30;;;;;;5055867;28;20405;-71
2024/02/15 04:38:52;;;;;;;2.70;1.53;;;20.80;55.30;;;;;;5055860;28;20176;-70
2024/02/15 04:41:23;;;;;;;2.53;1.60;;;20.80;55.30;;;;;;5055825;28;20433;-69
2024/02/15 04:43:52;;;;;;;2.00;1.53;;;20.80;55.30;;;;;;5055986;28;20436;-72
2024/02/15 04:46:21;;;;;;;2.00;1.43;;;20.80;55.30;;;;;;5055752;28;20531;-70
2024/02/15 04:48:50;;;;;;;1.80;1.53;;;20.80;55.30;;;;;;5055814;28;20421;-70
2024/02/15 04:51:16;;;;;;;1.70;1.47;;;20.80;55.30;;;;;;5055479;28;20429;-71
2024/02/15 04:53:43;;;;;;;3.00;1.90;;;20.80;55.30;;;;;;5055389;28;20441;-71
2024/02/15 04:56:13;;;;;;;2.47;1.80;;;20.80;55.30;;;;;;5055357;28;20409;-70
2024/02/15 04:58:45;;;;;;;2.40;1.57;;;20.80;55.30;;;;;;5055911;28;20405;-70
2024/02/15 05:01:15;;;;;;;1.57;1.30;;;20.80;55.30;;;;;;5055369;28;20452;-71
2024/02/15 05:03:42;;;;;;;3.37;1.80;;;20.80;55.30;;;;;;5055180;28;20939;-69
2024/02/15 05:06:09;;;;;;;3.27;1.67;;;20.80;55.30;;;;;;5055192;28;20832;-71
2024/02/15 05:08:42;;;;;;;2.50;1.50;;;20.80;55.30;;;;;;5055496;28;20439;-72
2024/02/15 05:11:18;;;;;;;2.03;1.30;;;20.80;55.30;;;;;;5055226;28;20394;-70
2024/02/15 05:13:46;;;;;;;1.50;1.10;;;20.80;55.30;;;;;;5055806;28;20448;-71
2024/02/15 05:16:12;;;;;;;2.30;1.40;;;20.80;55.80;;;;;;5054524;28;20448;-70
2024/02/15 05:18:39;;;;;;;2.50;1.30;;;20.80;55.30;;;;;;5055130;28;20426;-71
2024/02/15 05:21:09;;;;;;;2.10;1.50;;;20.80;55.30;;;;;;5055042;28;20452;-70
2024/02/15 05:23:41;;;;;;;1.40;1.30;;;20.80;55.30;;;;;;5055119;28;20412;-70
2024/02/15 05:26:09;;;;;;;2.13;1.30;;;20.90;55.30;;;;;;5054473;28;20449;-71
2024/02/15 05:28:35;;;;;;;1.40;1.10;;;20.90;55.30;;;;;;5054846;28;20406;-71
2024/02/15 05:31:16;;;;;;;1.90;1.80;;;20.80;55.20;;;;;;5055172;28;20512;-69
2024/02/15 05:33:52;;;;;;;2.83;1.77;;;20.90;55.30;;;;;;5055192;28;20390;-70
2024/02/15 05:36:25;;;;;;;2.00;1.50;;;20.90;55.30;;;;;;5055185;28;20876;-71
2024/02/15 05:38:52;;;;;;;2.23;1.40;;;20.90;55.30;;;;;;5053429;28;20780;-72
2024/02/15 05:41:19;;;;;;;2.20;1.80;;;20.90;55.30;;;;;;5053747;28;20452;-71
2024/02/15 05:43:46;;;;;;;2.83;1.60;;;20.80;55.70;;;;;;5053539;28;20420;-71
2024/02/15 05:46:12;;;;;;;2.43;1.30;;;20.90;55.30;;;;;;5053910;28;20488;-71
2024/02/15 05:48:39;;;;;;;1.73;1.63;;;20.90;55.20;;;;;;5054112;28;20475;-70
2024/02/15 05:51:06;;;;;;;2.53;1.37;;;20.90;55.20;;;;;;5053369;28;20492;-70
2024/02/15 05:53:35;;;;;;;1.93;1.30;;;20.90;55.30;;;;;;5053759;28;20402;-70
2024/02/15 05:56:04;;;;;;;1.73;1.27;;;20.90;55.20;;;;;;5052746;28;20417;-71
2024/02/15 05:58:30;;;;;;;1.73;1.30;;;20.90;55.30;;;;;;5053913;28;20416;-70
2024/02/15 06:01:01;;;;;;;2.20;1.53;;;20.90;55.20;;;;;;5053285;28;20984;-69
2024/02/15 06:03:29;;;;;;;1.50;1.40;;;20.80;55.20;;;;;;5053598;28;20386;-71
2024/02/15 06:05:58;;;;;;;1.50;1.23;;;20.80;55.20;;;;;;5053385;28;20910;-72
2024/02/15 06:08:24;;;;;;;1.93;1.43;;;20.80;55.50;;;;;;5053207;28;20410;-70
2024/02/15 06:10:50;;;;;;;1.90;1.43;;;20.80;55.20;;;;;;5053724;28;20417;-70
2024/02/15 06:13:16;;;;;;;1.60;1.30;;;20.90;55.30;;;;;;5053085;28;20437;-70
2024/02/15 06:15:41;;;;;;;1.80;1.47;;;20.90;55.30;;;;;;5053506;28;20588;-72
2024/02/15 06:18:10;;;;;;;2.90;1.43;;;20.90;55.20;;;;;;5051992;28;20179;-70
2024/02/15 06:20:35;;;;;;;2.33;1.50;;;20.90;55.30;;;;;;5053342;28;20191;-71
2024/02/15 06:23:05;;;;;;;2.97;1.50;;;20.90;55.30;;;;;;5053577;28;20436;-71
2024/02/15 06:25:32;;;;;;;2.23;1.53;;;20.90;55.30;;;;;;5053628;28;20861;-70
2024/02/15 06:28:01;;;;;;;1.87;1.53;;;20.90;55.30;;;;;;5053426;28;20444;-69
2024/02/15 06:41:25;;;;;;;2.13;1.40;;;20.90;55.20;;;;;;5052260;28;20432;-71
2024/02/15 06:43:50;;;;;;;1.43;1.27;;;21.00;55.30;;;;;;5053575;28;20421;-71
2024/02/15 06:46:16;;;;;;;1.30;1.10;;;21.00;55.30;;;;;;5053411;28;20484;-69
2024/02/15 06:48:44;;;;;;;1.57;1.27;;;21.00;55.20;;;;;;5053732;28;20245;-69
2024/02/15 06:51:15;;;;;;;2.07;1.60;;;21.00;55.20;;;;;;5053071;28;20171;-70
2024/02/15 06:53:41;;;;;;;2.17;1.50;;;21.00;55.20;;;;;;5053429;28;20899;-70
2024/02/15 06:56:10;;;;;;;2.50;1.57;;;21.00;55.20;;;;;;5053497;28;20417;-69
2024/02/15 06:58:36;;;;;;;1.90;1.20;;;21.00;55.20;;;;;;5053452;28;20405;-70
2024/02/15 07:01:02;;;;;;;1.67;1.30;;;21.10;55.30;;;;;;5052993;28;20414;-70
2024/02/15 07:03:32;;;;;;;1.70;1.47;;;21.10;55.30;;;;;;5053310;28;20414;-70
2024/02/15 07:05:57;;;;;;;1.67;1.23;;;21.10;55.20;;;;;;5053521;28;20457;-69
2024/02/15 07:08:24;;;;;;;2.37;1.40;;;21.10;55.30;;;;;;5053360;28;20406;-72
2024/02/15 07:10:51;;;;;;;2.10;1.60;;;21.10;55.20;;;;;;5053020;28;20182;-70
2024/02/15 07:13:17;;;;;;;2.43;1.90;;;21.10;55.30;;;;;;5053191;28;20453;-70
2024/02/15 07:15:44;;;;;;;2.20;1.50;;;21.10;55.30;;;;;;5053732;28;20417;-70
2024/02/15 07:18:12;;;;;;;2.23;1.10;;;21.10;55.30;;;;;;5052893;28;20435;-71
2024/02/15 07:20:37;;;;;;;1.90;1.33;;;21.10;55.30;;;;;;5052087;28;20449;-70
2024/02/15 07:23:03;;;;;;;1.23;1.00;;;21.10;55.30;;;;;;5051368;28;20544;-71
2024/02/15 07:25:29;;;;;;;1.90;1.40;;;21.10;55.30;;;;;;5052823;28;20238;-69
2024/02/15 07:27:56;;;;;;;2.07;1.50;;;21.10;55.30;;;;;;5053010;28;20205;-71
2024/02/15 07:30:22;;;;;;;1.40;1.17;;;21.10;55.30;;;;;;5053392;28;20171;-70
2024/02/15 07:32:49;;;;;;;2.20;1.37;;;21.10;55.30;;;;;;5051170;28;20528;-71
2024/02/15 07:35:17;;;;;;;1.93;1.40;;;21.10;55.30;;;;;;5052877;28;20424;-70
2024/02/15 07:37:52;;;;;;;1.60;1.30;;;21.10;55.30;;;;;;5053043;28;20780;-70
2024/02/15 07:40:18;;;;;;;1.70;1.20;;;21.10;55.40;;;;;;5051041;28;20495;-71
2024/02/15 07:42:44;;;;;;;1.63;1.27;;;21.10;55.40;;;;;;5053209;28;20437;-71
2024/02/15 07:45:11;;;;;;;1.33;1.07;;;21.10;55.90;;;;;;5051534;28;20699;-70
2024/02/15 07:47:36;;;;;;;1.63;1.13;;;21.10;55.90;;;;;;5053699;28;20310;-70
2024/02/15 07:50:03;;;;;;;2.37;1.37;;;21.10;55.40;;;;;;5057033;28;20433;-71
2024/02/15 07:52:29;;;;;;;1.83;1.10;;;21.10;55.40;;;;;;5056970;28;20600;-70
2024/02/15 07:54:54;;;;;;;1.40;1.30;;;21.10;55.40;;;;;;5056732;28;20436;-70
2024/02/15 07:57:20;;;;;;;1.60;1.20;;;21.10;55.40;;;;;;5056467;28;20452;-71
2024/02/15 07:59:47;;;;;;;1.70;1.43;;;21.10;55.40;;;;;;5056872;28;20175;-69
2024/02/15 08:02:17;;;;;;;1.73;1.30;;;21.10;55.40;;;;;;5056669;28;20233;-70
2024/02/15 08:04:44;;;;;;;1.40;1.10;;;21.10;55.40;;;;;;5056775;28;20448;-70
2024/02/15 08:07:10;;;;;;;1.20;1.10;;;21.10;55.40;;;;;;5056338;28;20861;-70
2024/02/15 08:09:37;;;;;;;1.67;1.20;;;21.10;55.30;;;;;;5056872;28;20405;-71
2024/02/15 08:12:03;;;;;;;1.20;1.10;;;21.10;55.30;;;;;;5055196;28;20501;-70
2024/02/15 08:14:29;;;;;;;1.40;1.20;;;21.10;55.30;;;;;;5056790;28;20911;-70
2024/02/15 08:16:55;;;;;;;1.50;1.10;;;21.10;55.30;;;;;;5056543;28;20224;-71
2024/02/15 08:19:22;;;;;;;2.10;1.43;;;21.10;55.30;;;;;;5056001;28;20508;-70
2024/02/15 08:21:50;;;;;;;2.17;1.20;;;21.20;55.40;;;;;;5054282;28;20465;-71
2024/02/15 08:24:16;;;;;;;1.40;1.20;;;21.10;55.30;;;;;;5055528;28;20412;-71
2024/02/15 08:26:42;;;;;;;1.77;1.50;;;21.20;55.40;;;;;;5055333;28;20485;-69
2024/02/15 08:29:14;;;;;;;1.97;1.37;;;21.20;55.40;;;;;;5055128;28;20440;-70
2024/02/15 08:31:41;;;;;;;1.80;1.20;;;21.20;55.40;;;;;;5055647;28;20462;-69
2024/02/15 08:34:09;;;;;;;1.47;1.37;;;21.20;55.50;;;;;;5055491;28;20414;-68
2024/02/15 08:36:35;;;;;;;1.43;1.20;;;21.20;55.40;;;;;;5055389;28;20421;-71
2024/02/15 08:39:01;;;;;;;1.77;1.10;;;21.20;55.40;;;;;;5054928;28;20835;-69
2024/02/15 08:41:27;;;;;;;1.30;1.20;;;21.20;55.40;;;;;;5055753;28;20433;-69
2024/02/15 08:43:53;;;;;;;1.63;1.23;;;21.20;55.40;;;;;;5054889;28;20171;-70
2024/02/15 08:46:19;;;;;;;1.33;1.10;;;21.20;55.40;;;;;;5053796;28;20689;-69
2024/02/15 08:48:46;;;;;;;1.53;1.10;;;21.20;55.40;;;;;;5055563;28;20413;-71
2024/02/15 08:51:12;;;;;;;2.10;1.37;;;21.20;55.50;;;;;;5055221;28;20205;-69
2024/02/15 08:53:38;;;;;;;1.40;1.20;;;21.20;55.50;;;;;;5055350;28;20405;-70
2024/02/15 08:56:08;;;;;;;1.50;1.20;;;21.20;55.50;;;;;;5053871;28;20493;-70
2024/02/15 08:58:35;;;;;;;1.50;1.20;;;21.20;55.50;;;;;;5055550;28;20261;-69
2024/02/15 09:01:00;;;;;;;2.27;1.23;;;21.20;55.50;;;;;;5054639;28;20410;-71
2024/02/15 09:03:26;;;;;;;2.23;1.23;;;21.20;55.50;;;;;;5054642;28;20459;-71
2024/02/15 09:05:51;;;;;;;1.40;1.13;;;21.20;55.50;;;;;;5055108;28;20285;-71
2024/02/15 09:08:20;;;;;;;2.07;1.23;;;21.20;55.50;;;;;;5054885;28;20656;-70
2024/02/15 09:10:47;;;;;;;1.10;1.00;;;21.20;55.50;;;;;;5055117;28;20206;-69
2024/02/15 09:13:12;;;;;;;1.57;1.10;;;21.20;55.50;;;;;;5053721;28;20425;-71
2024/02/15 09:15:38;;;;;;;2.47;1.40;;;21.20;55.50;;;;;;5054976;28;20909;-70
2024/02/15 09:18:05;;;;;;;1.60;1.17;;;21.20;55.50;;;;;;5055155;28;20183;-71
2024/02/15 09:20:31;;;;;;;1.90;1.40;;;21.20;55.50;;;;;;5054704;28;20448;-69
2024/02/15 09:22:57;;;;;;;1.80;1.30;;;21.20;55.50;;;;;;5054898;28;20459;-69
2024/02/15 09:25:23;;;;;;;1.57;1.20;;;21.20;55.50;;;;;;5054883;28;20536;-70
2024/02/15 09:27:49;;;;;;;1.80;1.10;;;21.20;55.50;;;;;;5054760;28;20582;-71
2024/02/15 09:30:16;;;;;;;1.37;1.00;;;21.20;55.50;;;;;;5054196;28;20552;-70
2024/02/15 09:32:42;;;;;;;1.50;1.20;;;21.20;55.50;;;;;;5054396;28;20429;-71
2024/02/15 09:35:09;;;;;;;1.80;1.30;;;21.20;55.60;;;;;;5053242;28;20417;-71
2024/02/15 09:37:39;;;;;;;1.87;1.37;;;21.20;55.50;;;;;;5054657;28;20508;-71
2024/02/15 09:40:10;;;;;;;1.40;1.10;;;21.20;55.50;;;;;;5054197;28;20413;-70
2024/02/15 09:42:36;;;;;;;1.60;1.30;;;21.20;55.50;;;;;;5052968;28;20435;-71
2024/02/15 09:45:02;;;;;;;3.00;1.57;;;21.20;55.60;;;;;;5054962;28;20553;-70
2024/02/15 09:47:48;;;;;;;1.33;0.87;;;21.20;55.60;;;;;;5054416;28;20924;-71
2024/02/15 09:50:16;;;;;;;1.43;0.93;;;21.20;55.60;;;;;;5054573;28;20398;-70
2024/02/15 09:52:49;;;;;;;1.57;1.27;;;21.20;55.60;;;;;;5054248;28;20936;-70
2024/02/15 09:55:16;;;;;;;1.70;1.17;;;21.20;55.60;;;;;;5054040;28;20421;-71
2024/02/15 09:57:47;;;;;;;1.67;1.30;;;21.20;55.60;;;;;;5054066;28;20412;-70
2024/02/15 10:00:13;;;;;;;1.40;1.10;;;21.20;55.60;;;;;;5053771;28;20459;-70
2024/02/15 10:02:55;;;;;;;1.47;1.20;;;21.10;55.50;;;;;;5053962;28;20434;-70
2024/02/15 10:05:22;;;;;;;2.10;1.00;;;21.20;55.70;;;;;;5053811;28;20479;-70
2024/02/15 10:07:48;;;;;;;1.10;0.93;;;21.20;55.70;;;;;;5052210;28;20902;-70
2024/02/15 10:10:25;;;;;;;1.80;1.20;;;21.20;55.70;;;;;;5053453;28;20442;-70
2024/02/15 10:12:54;;;;;;;1.43;1.07;;;21.20;55.70;;;;;;5053012;28;20189;-70
2024/02/15 10:15:40;;;;;;;1.97;1.27;;;21.20;55.70;;;;;;5053696;28;20421;-71
2024/02/15 10:18:11;;;;;;;1.33;1.20;;;21.20;55.70;;;;;;5054162;28;20880;-71
2024/02/15 10:20:44;;;;;;;1.50;1.07;;;21.20;55.70;;;;;;5054236;28;20397;-70
2024/02/15 10:23:17;;;;;;;1.40;1.20;;;21.20;55.70;;;;;;5053515;28;20425;-71
2024/02/15 10:25:43;;;;;;;1.20;1.00;;;21.20;55.70;;;;;;5053624;28;20996;-72
2024/02/15 10:28:10;;;;;;;2.00;1.30;;;21.20;55.70;;;;;;5053357;28;20409;-70
2024/02/15 10:30:45;;;;;;;2.33;1.50;;;21.20;55.70;;;;;;5053436;28;20221;-71
2024/02/15 10:33:30;;;;;;;1.13;1.03;;;21.20;55.70;;;;;;5053664;28;20464;-69
2024/02/15 10:36:07;;;;;;;2.00;1.20;;;21.20;55.70;;;;;;5053026;28;20405;-71
2024/02/15 10:38:33;;;;;;;1.63;1.30;;;21.20;55.70;;;;;;5053054;28;20433;-70
2024/02/15 10:41:07;;;;;;;1.40;0.87;;;21.20;55.70;;;;;;5053081;28;20456;-70
2024/02/15 10:43:34;;;;;;;1.00;0.83;;;21.20;55.80;;;;;;5053111;28;20162;-71
2024/02/15 10:46:00;;;;;;;1.57;1.00;;;21.20;55.80;;;;;;5052993;28;20472;-71
2024/02/15 10:48:28;;;;;;;2.03;1.20;;;21.20;55.80;;;;;;5053284;28;20402;-71
2024/02/15 10:50:56;;;;;;;1.60;1.30;;;21.20;55.80;;;;;;5052791;28;20448;-70
2024/02/15 10:53:24;;;;;;;1.27;1.00;;;21.20;55.80;;;;;;5052772;28;20401;-71
2024/02/15 10:56:17;;;;;;;1.43;1.10;;;21.20;55.80;;;;;;5053287;28;20421;-70
2024/02/15 10:59:13;;;;;;;1.30;1.00;;;21.20;55.70;;;;;;5052745;28;20413;-70
2024/02/15 11:01:40;;;;;;;1.67;0.90;;;21.20;56.30;;;;;;5051908;28;20480;-70
2024/02/15 11:04:08;;;;;;;1.70;1.10;;;21.20;55.80;;;;;;5053343;28;20413;-70
2024/02/15 11:06:41;;;;;;;1.53;1.10;;;21.20;55.80;;;;;;5051771;28;20460;-70
2024/02/15 11:09:08;;;;;;;1.60;1.10;;;21.20;55.80;;;;;;5053144;28;20394;-71
2024/02/15 11:11:37;;;;;;;1.13;1.00;;;21.20;55.80;;;;;;5053418;28;20666;-70
2024/02/15 11:14:25;;;;;;;1.67;1.00;;;21.20;55.80;;;;;;5053066;28;20409;-71
2024/02/15 11:16:50;;;;;;;1.53;1.10;;;21.20;55.80;;;;;;5052890;28;20857;-70
2024/02/15 11:19:35;;;;;;;1.57;1.30;;;21.20;55.90;;;;;;5052564;28;20425;-71
2024/02/15 11:22:03;;;;;;;1.30;1.00;;;21.20;55.80;;;;;;5052816;28;20187;-71
2024/02/15 11:24:37;;;;;;;1.87;1.10;;;21.20;55.90;;;;;;5052881;28;20441;-70
2024/02/15 11:27:05;;;;;;;1.47;1.03;;;21.10;55.80;;;;;;5052923;28;20389;-69
2024/02/15 11:29:51;;;;;;;1.47;1.10;;;21.20;55.90;;;;;;5052601;28;20421;-70
2024/02/15 11:32:47;;;;;;;1.10;1.00;;;21.20;55.90;;;;;;5053062;28;20429;-70
2024/02/15 11:35:17;;;;;;;1.50;0.93;;;21.20;55.90;;;;;;5052950;28;20397;-71
2024/02/15 11:37:49;;;;;;;1.40;0.97;;;21.10;55.80;;;;;;5052695;28;20437;-70
2024/02/15 11:40:24;;;;;;;2.27;1.20;;;21.20;55.90;;;;;;5052871;28;20421;-71
2024/02/15 11:43:01;;;;;;;1.57;1.00;;;21.10;55.80;;;;;;5052300;28;20437;-71
2024/02/15 11:45:37;;;;;;;1.60;0.90;;;21.10;55.80;;;;;;5052408;28;20444;-71
2024/02/15 11:48:07;;;;;;;1.70;1.10;;;21.10;55.80;;;;;;5052885;28;20452;-70
2024/02/15 11:50:37;;;;;;;1.00;0.90;;;21.10;55.80;;;;;;5052562;28;20444;-70
2024/02/15 11:53:10;;;;;;;1.17;0.87;;;21.20;55.90;;;;;;5051157;28;21005;-70
2024/02/15 11:55:38;;;;;;;2.20;1.40;;;21.10;55.80;;;;;;5052294;28;20441;-71
2024/02/15 11:58:05;;;;;;;1.57;1.10;;;21.20;55.90;;;;;;5051873;28;20428;-71
2024/02/15 12:19:56;;;;;;;1.50;1.00;;;21.10;55.90;;;;;;5051612;28;20606;-71
2024/02/15 12:22:27;;;;;;;1.20;0.73;;;21.10;55.90;;;;;;5051811;28;20437;-67
2024/02/15 12:24:54;;;;;;;1.97;1.20;;;21.10;55.90;;;;;;5052156;28;20449;-71
2024/02/15 12:27:20;;;;;;;1.33;1.03;;;21.10;55.90;;;;;;5051391;28;20417;-71
2024/02/15 12:29:56;;;;;;;1.00;0.83;;;21.10;55.90;;;;;;5051408;28;20896;-68
2024/02/15 12:32:23;;;;;;;1.33;1.10;;;21.10;55.90;;;;;;5049893;28;20712;-70
2024/02/15 12:34:51;;;;;;;2.07;1.10;;;21.10;55.90;;;;;;5052316;28;20504;-70
2024/02/15 12:37:18;;;;;;;1.67;0.93;;;21.10;55.90;;;;;;5054965;28;20470;-70
2024/02/15 12:39:44;;;;;;;1.20;1.10;;;21.10;55.80;;;;;;5054796;28;20426;-69
2024/02/15 12:42:10;;;;;;;1.50;1.20;;;21.10;55.80;;;;;;5055051;28;20437;-70
2024/02/15 12:44:36;;;;;;;1.53;1.00;;;21.10;55.80;;;;;;5054808;28;20175;-71
2024/02/15 12:47:03;;;;;;;1.70;1.20;;;21.10;55.90;;;;;;5055528;28;20970;-69
2024/02/15 12:49:32;;;;;;;2.17;1.13;;;21.10;55.90;;;;;;5055740;28;20179;-70
2024/02/15 12:52:38;;;;;;;1.70;1.23;;;21.10;55.80;;;;;;5054945;28;20967;-71
2024/02/15 12:55:19;;;;;;;1.63;1.13;;;21.10;55.80;;;;;;5055325;28;20409;-70
2024/02/15 12:57:52;;;;;;;1.17;0.90;;;21.10;55.80;;;;;;5053470;28;20424;-71
2024/02/15 13:00:31;;;;;;;1.10;0.90;;;21.10;55.80;;;;;;5055042;28;20427;-71
2024/02/15 13:02:58;;;;;;;1.20;0.90;;;21.10;55.80;;;;;;5055348;28;20487;-71
2024/02/15 13:05:27;;;;;;;1.20;1.00;;;21.10;55.80;;;;;;5055206;28;20535;-71
2024/02/15 13:08:10;;;;;;;1.10;0.90;;;21.10;55.80;;;;;;5055119;28;20445;-71
2024/02/15 13:10:36;;;;;;;1.23;1.03;;;21.10;55.80;;;;;;5054636;28;20400;-69
2024/02/15 13:13:02;;;;;;;1.37;1.03;;;21.10;55.80;;;;;;5054720;28;20433;-70
2024/02/15 13:15:32;;;;;;;1.30;1.03;;;21.10;55.70;;;;;;5054665;28;20409;-71
2024/02/15 13:17:59;;;;;;;1.30;1.03;;;21.10;55.70;;;;;;5054593;28;20197;-71
2024/02/15 13:20:35;;;;;;;1.10;0.90;;;21.10;55.80;;;;;;5054638;28;20429;-71
2024/02/15 13:23:08;;;;;;;1.33;1.00;;;21.10;55.80;;;;;;5054158;28;20511;-71
2024/02/15 13:25:34;;;;;;;1.53;1.20;;;21.10;55.80;;;;;;5053621;28;20488;-69